sensor_id;sensor_type;location;lat;lon;timestamp;P1;durP1;ratioP1;P2;durP2;ratioP2
13455;SDS011;6800;50.940;6.940;2022-07-24T00:02:16;6.72;;;5.78;;
13455;SDS011;6800;50.940;6.940;2022-07-24T00:06:16;6.80;;;5.50;;
13455;SDS011;6800;50.940;6.940;2022-07-24T00:10:16;7.10;;;6.40;;
13455;SDS011;6800;50.940;6.940;2022-07-24T00:14:17;6.45;;;5.72;;
13455;SDS011;6800;50.940;6.940;2022-07-24T00:18:17;6.25;;;5.72;;
13455;SDS011;6800;50.940;6.940;2022-07-24T00:22:17;6.65;;;6.05;;
13455;SDS011;6800;50.940;6.940;2022-07-24T00:26:18;7.93;;;6.15;;
13455;SDS011;6800;50.940;6.940;2022-07-24T00:30:18;7.47;;;6.03;;
13455;SDS011;6800;50.940;6.940;2022-07-24T00:34:19;7.13;;;5.70;;
13455;SDS011;6800;50.940;6.940;2022-07-24T00:38:19;6.57;;;5.72;;
13455;SDS011;6800;50.940;6.940;2022-07-24T00:42:20;7.32;;;6.65;;
13455;SDS011;6800;50.940;6.940;2022-07-24T00:46:20;6.47;;;5.88;;
13455;SDS011;6800;50.940;6.940;2022-07-24T00:50:20;7.45;;;6.32;;
13455;SDS011;6800;50.940;6.940;2022-07-24T00:54:21;7.35;;;6.65;;
13455;SDS011;6800;50.940;6.940;2022-07-24T00:58:22;8.98;;;6.15;;
13455;SDS011;6800;50.940;6.940;2022-07-24T01:02:23;7.22;;;6.53;;
13455;SDS011;6800;50.940;6.940;2022-07-24T01:06:23;6.25;;;5.75;;
13455;SDS011;6800;50.940;6.940;2022-07-24T01:10:25;7.10;;;6.50;;
13455;SDS011;6800;50.940;6.940;2022-07-24T01:14:26;7.30;;;6.63;;
13455;SDS011;6800;50.940;6.940;2022-07-24T01:18:26;8.05;;;6.18;;
13455;SDS011;6800;50.940;6.940;2022-07-24T01:22:27;6.75;;;6.15;;
13455;SDS011;6800;50.940;6.940;2022-07-24T01:26:27;6.95;;;6.35;;
13455;SDS011;6800;50.940;6.940;2022-07-24T01:30:27;7.97;;;6.28;;
13455;SDS011;6800;50.940;6.940;2022-07-24T01:34:28;6.80;;;6.20;;
13455;SDS011;6800;50.940;6.940;2022-07-24T01:38:28;8.38;;;6.57;;
13455;SDS011;6800;50.940;6.940;2022-07-24T01:42:28;6.65;;;6.07;;
13455;SDS011;6800;50.940;6.940;2022-07-24T01:46:29;7.60;;;6.90;;
13455;SDS011;6800;50.940;6.940;2022-07-24T01:50:29;7.45;;;6.72;;
13455;SDS011;6800;50.940;6.940;2022-07-24T01:54:30;8.05;;;7.35;;
13455;SDS011;6800;50.940;6.940;2022-07-24T01:58:30;7.63;;;6.85;;
13455;SDS011;6800;50.940;6.940;2022-07-24T02:02:31;7.07;;;6.40;;
13455;SDS011;6800;50.940;6.940;2022-07-24T02:06:31;7.60;;;6.90;;
13455;SDS011;6800;50.940;6.940;2022-07-24T02:10:32;9.50;;;7.07;;
13455;SDS011;6800;50.940;6.940;2022-07-24T02:14:32;7.40;;;6.70;;
13455;SDS011;6800;50.940;6.940;2022-07-24T02:18:32;7.63;;;6.88;;
13455;SDS011;6800;50.940;6.940;2022-07-24T02:22:33;7.40;;;6.80;;
13455;SDS011;6800;50.940;6.940;2022-07-24T02:26:33;6.88;;;6.32;;
13455;SDS011;6800;50.940;6.940;2022-07-24T02:30:34;6.60;;;6.00;;
13455;SDS011;6800;50.940;6.940;2022-07-24T02:34:34;6.55;;;6.05;;
13455;SDS011;6800;50.940;6.940;2022-07-24T02:38:34;7.03;;;6.43;;
13455;SDS011;6800;50.940;6.940;2022-07-24T02:42:36;7.15;;;6.43;;
13455;SDS011;6800;50.940;6.940;2022-07-24T02:46:37;7.53;;;6.22;;
13455;SDS011;6800;50.940;6.940;2022-07-24T02:50:37;7.35;;;6.65;;
13455;SDS011;6800;50.940;6.940;2022-07-24T02:54:38;7.30;;;6.35;;
13455;SDS011;6800;50.940;6.940;2022-07-24T02:58:39;8.15;;;7.35;;
13455;SDS011;6800;50.940;6.940;2022-07-24T03:02:39;7.20;;;6.60;;
13455;SDS011;6800;50.940;6.940;2022-07-24T03:06:39;7.90;;;7.20;;
13455;SDS011;6800;50.940;6.940;2022-07-24T03:10:40;7.78;;;7.13;;
13455;SDS011;6800;50.940;6.940;2022-07-24T03:14:40;8.70;;;7.25;;
13455;SDS011;6800;50.940;6.940;2022-07-24T03:18:41;7.10;;;6.50;;
13455;SDS011;6800;50.940;6.940;2022-07-24T03:22:46;7.80;;;7.20;;
13455;SDS011;6800;50.940;6.940;2022-07-24T03:26:46;7.82;;;7.05;;
13455;SDS011;6800;50.940;6.940;2022-07-24T03:30:47;8.25;;;7.45;;
13455;SDS011;6800;50.940;6.940;2022-07-24T03:34:47;8.10;;;7.38;;
13455;SDS011;6800;50.940;6.940;2022-07-24T03:38:47;7.53;;;6.93;;
13455;SDS011;6800;50.940;6.940;2022-07-24T03:42:48;7.90;;;7.15;;
13455;SDS011;6800;50.940;6.940;2022-07-24T03:46:48;7.75;;;6.88;;
13455;SDS011;6800;50.940;6.940;2022-07-24T03:50:48;7.50;;;6.95;;
13455;SDS011;6800;50.940;6.940;2022-07-24T03:54:49;7.65;;;6.95;;
13455;SDS011;6800;50.940;6.940;2022-07-24T03:58:49;8.23;;;7.53;;
13455;SDS011;6800;50.940;6.940;2022-07-24T04:02:49;7.70;;;7.10;;
13455;SDS011;6800;50.940;6.940;2022-07-24T04:06:51;8.15;;;7.35;;
13455;SDS011;6800;50.940;6.940;2022-07-24T04:10:56;7.80;;;7.20;;
13455;SDS011;6800;50.940;6.940;2022-07-24T04:14:57;9.07;;;7.00;;
13455;SDS011;6800;50.940;6.940;2022-07-24T04:18:57;7.60;;;6.85;;
13455;SDS011;6800;50.940;6.940;2022-07-24T04:22:58;7.95;;;7.18;;
13455;SDS011;6800;50.940;6.940;2022-07-24T04:26:58;7.38;;;6.78;;
13455;SDS011;6800;50.940;6.940;2022-07-24T04:30:58;7.43;;;6.68;;
13455;SDS011;6800;50.940;6.940;2022-07-24T04:34:58;7.78;;;7.07;;
13455;SDS011;6800;50.940;6.940;2022-07-24T04:38:59;7.38;;;6.78;;
13455;SDS011;6800;50.940;6.940;2022-07-24T04:42:59;7.57;;;7.03;;
13455;SDS011;6800;50.940;6.940;2022-07-24T04:47:00;7.55;;;6.85;;
13455;SDS011;6800;50.940;6.940;2022-07-24T04:51:00;8.05;;;6.55;;
13455;SDS011;6800;50.940;6.940;2022-07-24T04:55:00;6.70;;;6.10;;
13455;SDS011;6800;50.940;6.940;2022-07-24T04:59:00;6.68;;;6.10;;
13455;SDS011;6800;50.940;6.940;2022-07-24T05:03:02;6.93;;;6.32;;
13455;SDS011;6800;50.940;6.940;2022-07-24T05:07:02;7.20;;;6.13;;
13455;SDS011;6800;50.940;6.940;2022-07-24T05:11:03;7.32;;;6.55;;
13455;SDS011;6800;50.940;6.940;2022-07-24T05:15:04;6.97;;;5.65;;
13455;SDS011;6800;50.940;6.940;2022-07-24T05:19:05;6.75;;;6.10;;
13455;SDS011;6800;50.940;6.940;2022-07-24T05:23:06;6.45;;;5.95;;
13455;SDS011;6800;50.940;6.940;2022-07-24T05:27:06;7.45;;;5.90;;
13455;SDS011;6800;50.940;6.940;2022-07-24T05:31:06;6.25;;;5.65;;
13455;SDS011;6800;50.940;6.940;2022-07-24T05:35:08;5.88;;;5.38;;
13455;SDS011;6800;50.940;6.940;2022-07-24T05:39:08;6.68;;;5.78;;
13455;SDS011;6800;50.940;6.940;2022-07-24T05:43:09;6.35;;;5.75;;
13455;SDS011;6800;50.940;6.940;2022-07-24T05:47:09;6.28;;;5.60;;
13455;SDS011;6800;50.940;6.940;2022-07-24T05:51:09;5.30;;;4.80;;
13455;SDS011;6800;50.940;6.940;2022-07-24T05:55:11;5.47;;;4.97;;
13455;SDS011;6800;50.940;6.940;2022-07-24T05:59:11;5.22;;;4.72;;
13455;SDS011;6800;50.940;6.940;2022-07-24T06:03:12;7.63;;;5.60;;
13455;SDS011;6800;50.940;6.940;2022-07-24T06:07:12;5.70;;;5.30;;
13455;SDS011;6800;50.940;6.940;2022-07-24T06:11:13;5.85;;;5.20;;
13455;SDS011;6800;50.940;6.940;2022-07-24T06:15:13;5.20;;;4.70;;
13455;SDS011;6800;50.940;6.940;2022-07-24T06:19:13;5.22;;;4.82;;
13455;SDS011;6800;50.940;6.940;2022-07-24T06:23:14;5.50;;;5.00;;
13455;SDS011;6800;50.940;6.940;2022-07-24T06:27:14;5.97;;;5.47;;
13455;SDS011;6800;50.940;6.940;2022-07-24T06:31:14;6.53;;;5.35;;
13455;SDS011;6800;50.940;6.940;2022-07-24T06:35:15;4.60;;;4.20;;
13455;SDS011;6800;50.940;6.940;2022-07-24T06:39:16;5.40;;;4.80;;
13455;SDS011;6800;50.940;6.940;2022-07-24T06:43:16;5.30;;;4.35;;
13455;SDS011;6800;50.940;6.940;2022-07-24T06:47:17;5.28;;;4.88;;
13455;SDS011;6800;50.940;6.940;2022-07-24T06:51:17;4.63;;;4.00;;
13455;SDS011;6800;50.940;6.940;2022-07-24T06:55:17;3.93;;;3.63;;
13455;SDS011;6800;50.940;6.940;2022-07-24T06:59:17;3.90;;;3.60;;
13455;SDS011;6800;50.940;6.940;2022-07-24T07:03:18;3.72;;;3.40;;
13455;SDS011;6800;50.940;6.940;2022-07-24T07:07:18;4.03;;;3.15;;
13455;SDS011;6800;50.940;6.940;2022-07-24T07:11:18;3.97;;;3.40;;
13455;SDS011;6800;50.940;6.940;2022-07-24T07:15:19;3.67;;;3.30;;
13455;SDS011;6800;50.940;6.940;2022-07-24T07:19:19;3.85;;;3.38;;
13455;SDS011;6800;50.940;6.940;2022-07-24T07:23:23;3.70;;;3.40;;
13455;SDS011;6800;50.940;6.940;2022-07-24T07:27:23;3.90;;;3.50;;
13455;SDS011;6800;50.940;6.940;2022-07-24T07:31:24;4.00;;;3.60;;
13455;SDS011;6800;50.940;6.940;2022-07-24T07:35:26;5.60;;;4.30;;
13455;SDS011;6800;50.940;6.940;2022-07-24T07:39:26;5.17;;;4.37;;
13455;SDS011;6800;50.940;6.940;2022-07-24T07:43:26;3.78;;;3.47;;
13455;SDS011;6800;50.940;6.940;2022-07-24T07:47:27;4.00;;;3.70;;
13455;SDS011;6800;50.940;6.940;2022-07-24T07:51:27;4.45;;;3.63;;
13455;SDS011;6800;50.940;6.940;2022-07-24T07:55:27;3.65;;;3.35;;
13455;SDS011;6800;50.940;6.940;2022-07-24T07:59:28;3.90;;;3.53;;
13455;SDS011;6800;50.940;6.940;2022-07-24T08:03:28;3.53;;;3.22;;
13455;SDS011;6800;50.940;6.940;2022-07-24T08:07:28;4.75;;;4.35;;
13455;SDS011;6800;50.940;6.940;2022-07-24T08:11:29;5.13;;;3.42;;
13455;SDS011;6800;50.940;6.940;2022-07-24T08:15:29;3.60;;;3.30;;
13455;SDS011;6800;50.940;6.940;2022-07-24T08:19:30;4.20;;;3.58;;
13455;SDS011;6800;50.940;6.940;2022-07-24T08:23:30;4.83;;;3.77;;
13455;SDS011;6800;50.940;6.940;2022-07-24T08:27:34;3.70;;;3.40;;
13455;SDS011;6800;50.940;6.940;2022-07-24T08:31:35;5.78;;;3.92;;
13455;SDS011;6800;50.940;6.940;2022-07-24T08:35:36;5.55;;;3.80;;
13455;SDS011;6800;50.940;6.940;2022-07-24T08:39:36;3.47;;;3.22;;
13455;SDS011;6800;50.940;6.940;2022-07-24T08:43:36;3.67;;;3.33;;
13455;SDS011;6800;50.940;6.940;2022-07-24T08:47:38;3.53;;;3.10;;
13455;SDS011;6800;50.940;6.940;2022-07-24T08:51:41;3.55;;;3.28;;
13455;SDS011;6800;50.940;6.940;2022-07-24T08:55:42;6.32;;;4.10;;
13455;SDS011;6800;50.940;6.940;2022-07-24T08:59:43;4.23;;;3.20;;
13455;SDS011;6800;50.940;6.940;2022-07-24T09:03:44;4.68;;;4.25;;
13455;SDS011;6800;50.940;6.940;2022-07-24T09:07:46;3.60;;;3.30;;
13455;SDS011;6800;50.940;6.940;2022-07-24T09:11:46;3.63;;;3.22;;
13455;SDS011;6800;50.940;6.940;2022-07-24T09:15:47;4.33;;;3.90;;
13455;SDS011;6800;50.940;6.940;2022-07-24T09:19:56;5.57;;;3.80;;
13455;SDS011;6800;50.940;6.940;2022-07-24T09:24:00;3.72;;;3.30;;
13455;SDS011;6800;50.940;6.940;2022-07-24T09:28:11;4.20;;;3.75;;
13455;SDS011;6800;50.940;6.940;2022-07-24T09:32:12;3.70;;;3.40;;
13455;SDS011;6800;50.940;6.940;2022-07-24T09:36:23;4.13;;;3.72;;
13455;SDS011;6800;50.940;6.940;2022-07-24T09:40:30;3.85;;;3.55;;
13455;SDS011;6800;50.940;6.940;2022-07-24T09:44:32;4.43;;;3.88;;
13455;SDS011;6800;50.940;6.940;2022-07-24T09:48:37;4.53;;;3.80;;
13455;SDS011;6800;50.940;6.940;2022-07-24T09:52:39;4.18;;;3.80;;
13455;SDS011;6800;50.940;6.940;2022-07-24T09:56:40;4.13;;;3.78;;
13455;SDS011;6800;50.940;6.940;2022-07-24T10:00:41;5.05;;;4.10;;
13455;SDS011;6800;50.940;6.940;2022-07-24T10:04:43;3.97;;;3.65;;
13455;SDS011;6800;50.940;6.940;2022-07-24T10:08:45;4.43;;;3.30;;
13455;SDS011;6800;50.940;6.940;2022-07-24T10:12:46;4.20;;;3.63;;
13455;SDS011;6800;50.940;6.940;2022-07-24T10:16:47;3.50;;;3.30;;
13455;SDS011;6800;50.940;6.940;2022-07-24T10:20:58;4.25;;;3.85;;
13455;SDS011;6800;50.940;6.940;2022-07-24T10:25:07;4.05;;;3.72;;
13455;SDS011;6800;50.940;6.940;2022-07-24T10:29:13;5.15;;;4.07;;
13455;SDS011;6800;50.940;6.940;2022-07-24T10:41:37;4.90;;;3.80;;
13455;SDS011;6800;50.940;6.940;2022-07-24T10:45:39;3.90;;;3.60;;
13455;SDS011;6800;50.940;6.940;2022-07-24T10:49:44;3.70;;;3.40;;
13455;SDS011;6800;50.940;6.940;2022-07-24T10:53:46;3.58;;;3.28;;
13455;SDS011;6800;50.940;6.940;2022-07-24T10:57:49;3.58;;;3.17;;
13455;SDS011;6800;50.940;6.940;2022-07-24T11:02:23;3.60;;;3.30;;
13455;SDS011;6800;50.940;6.940;2022-07-24T11:10:50;4.30;;;3.10;;
13455;SDS011;6800;50.940;6.940;2022-07-24T11:14:59;4.50;;;3.08;;
13455;SDS011;6800;50.940;6.940;2022-07-24T11:23:20;3.00;;;2.70;;
13455;SDS011;6800;50.940;6.940;2022-07-24T11:27:20;3.42;;;3.13;;
13455;SDS011;6800;50.940;6.940;2022-07-24T11:31:22;4.70;;;3.17;;
13455;SDS011;6800;50.940;6.940;2022-07-24T11:35:29;3.55;;;3.00;;
13455;SDS011;6800;50.940;6.940;2022-07-24T11:39:34;6.00;;;3.33;;
13455;SDS011;6800;50.940;6.940;2022-07-24T11:43:49;3.95;;;3.40;;
13455;SDS011;6800;50.940;6.940;2022-07-24T11:47:50;3.97;;;3.67;;
13455;SDS011;6800;50.940;6.940;2022-07-24T11:51:54;3.58;;;3.28;;
13455;SDS011;6800;50.940;6.940;2022-07-24T11:56:02;3.55;;;3.25;;
13455;SDS011;6800;50.940;6.940;2022-07-24T12:00:05;3.60;;;3.30;;
13455;SDS011;6800;50.940;6.940;2022-07-24T12:04:09;4.43;;;3.50;;
13455;SDS011;6800;50.940;6.940;2022-07-24T12:08:17;4.00;;;3.70;;
13455;SDS011;6800;50.940;6.940;2022-07-24T12:16:24;4.13;;;3.72;;
13455;SDS011;6800;50.940;6.940;2022-07-24T12:20:26;4.13;;;3.75;;
13455;SDS011;6800;50.940;6.940;2022-07-24T12:24:31;4.85;;;3.90;;
13455;SDS011;6800;50.940;6.940;2022-07-24T12:28:32;4.05;;;3.65;;
13455;SDS011;6800;50.940;6.940;2022-07-24T12:32:33;4.32;;;3.80;;
13455;SDS011;6800;50.940;6.940;2022-07-24T12:36:33;4.95;;;3.88;;
13455;SDS011;6800;50.940;6.940;2022-07-24T12:40:34;4.63;;;4.22;;
13455;SDS011;6800;50.940;6.940;2022-07-24T12:44:40;4.97;;;4.40;;
13455;SDS011;6800;50.940;6.940;2022-07-24T12:49:00;4.43;;;3.65;;
13455;SDS011;6800;50.940;6.940;2022-07-24T12:53:04;4.78;;;4.38;;
13455;SDS011;6800;50.940;6.940;2022-07-24T12:57:09;4.50;;;4.10;;
13455;SDS011;6800;50.940;6.940;2022-07-24T13:01:11;4.32;;;3.83;;
13455;SDS011;6800;50.940;6.940;2022-07-24T13:05:12;4.15;;;3.75;;
13455;SDS011;6800;50.940;6.940;2022-07-24T13:09:13;4.20;;;3.90;;
13455;SDS011;6800;50.940;6.940;2022-07-24T13:13:14;5.70;;;5.30;;
13455;SDS011;6800;50.940;6.940;2022-07-24T13:17:15;4.20;;;3.80;;
13455;SDS011;6800;50.940;6.940;2022-07-24T13:21:16;4.57;;;4.20;;
13455;SDS011;6800;50.940;6.940;2022-07-24T13:25:19;4.65;;;4.05;;
13455;SDS011;6800;50.940;6.940;2022-07-24T13:29:19;4.50;;;4.20;;
13455;SDS011;6800;50.940;6.940;2022-07-24T13:33:19;4.10;;;3.80;;
13455;SDS011;6800;50.940;6.940;2022-07-24T13:37:20;3.88;;;3.47;;
13455;SDS011;6800;50.940;6.940;2022-07-24T13:41:20;6.13;;;5.63;;
13455;SDS011;6800;50.940;6.940;2022-07-24T13:45:21;4.10;;;3.80;;
13455;SDS011;6800;50.940;6.940;2022-07-24T13:49:22;6.65;;;4.10;;
13455;SDS011;6800;50.940;6.940;2022-07-24T13:53:22;4.57;;;4.18;;
13455;SDS011;6800;50.940;6.940;2022-07-24T13:57:23;4.40;;;4.00;;
13455;SDS011;6800;50.940;6.940;2022-07-24T14:01:24;5.25;;;4.65;;
13455;SDS011;6800;50.940;6.940;2022-07-24T14:05:25;4.07;;;3.70;;
13455;SDS011;6800;50.940;6.940;2022-07-24T14:09:25;4.90;;;3.80;;
13455;SDS011;6800;50.940;6.940;2022-07-24T14:13:26;4.63;;;4.22;;
13455;SDS011;6800;50.940;6.940;2022-07-24T14:17:28;4.40;;;4.00;;
13455;SDS011;6800;50.940;6.940;2022-07-24T14:21:28;4.40;;;4.00;;
13455;SDS011;6800;50.940;6.940;2022-07-24T14:25:30;4.45;;;3.83;;
13455;SDS011;6800;50.940;6.940;2022-07-24T14:29:30;3.63;;;3.25;;
13455;SDS011;6800;50.940;6.940;2022-07-24T14:33:30;4.30;;;3.90;;
13455;SDS011;6800;50.940;6.940;2022-07-24T14:37:32;4.07;;;3.78;;
13455;SDS011;6800;50.940;6.940;2022-07-24T14:41:36;4.50;;;4.10;;
13455;SDS011;6800;50.940;6.940;2022-07-24T14:45:37;3.85;;;3.53;;
13455;SDS011;6800;50.940;6.940;2022-07-24T14:49:37;4.22;;;3.70;;
13455;SDS011;6800;50.940;6.940;2022-07-24T14:53:38;3.85;;;3.55;;
13455;SDS011;6800;50.940;6.940;2022-07-24T14:57:38;4.55;;;3.63;;
13455;SDS011;6800;50.940;6.940;2022-07-24T15:01:38;3.90;;;3.60;;
13455;SDS011;6800;50.940;6.940;2022-07-24T15:05:39;3.83;;;3.60;;
13455;SDS011;6800;50.940;6.940;2022-07-24T15:09:39;4.03;;;3.73;;
13455;SDS011;6800;50.940;6.940;2022-07-24T15:13:39;4.07;;;3.72;;
13455;SDS011;6800;50.940;6.940;2022-07-24T15:17:42;4.43;;;4.00;;
13455;SDS011;6800;50.940;6.940;2022-07-24T15:21:43;4.47;;;4.07;;
13455;SDS011;6800;50.940;6.940;2022-07-24T15:25:43;4.30;;;3.90;;
13455;SDS011;6800;50.940;6.940;2022-07-24T15:29:43;4.23;;;3.83;;
13455;SDS011;6800;50.940;6.940;2022-07-24T15:33:43;4.07;;;3.77;;
13455;SDS011;6800;50.940;6.940;2022-07-24T15:37:44;4.28;;;3.97;;
13455;SDS011;6800;50.940;6.940;2022-07-24T15:41:44;4.67;;;4.27;;
13455;SDS011;6800;50.940;6.940;2022-07-24T15:45:45;5.07;;;4.10;;
13455;SDS011;6800;50.940;6.940;2022-07-24T15:49:45;4.22;;;3.83;;
13455;SDS011;6800;50.940;6.940;2022-07-24T15:53:45;4.87;;;3.97;;
13455;SDS011;6800;50.940;6.940;2022-07-24T15:57:46;4.60;;;4.20;;
13455;SDS011;6800;50.940;6.940;2022-07-24T16:01:47;4.10;;;3.78;;
13455;SDS011;6800;50.940;6.940;2022-07-24T16:05:47;4.20;;;3.80;;
13455;SDS011;6800;50.940;6.940;2022-07-24T16:09:48;4.53;;;4.13;;
13455;SDS011;6800;50.940;6.940;2022-07-24T16:13:49;5.03;;;4.30;;
13455;SDS011;6800;50.940;6.940;2022-07-24T16:17:51;4.47;;;4.18;;
13455;SDS011;6800;50.940;6.940;2022-07-24T16:21:52;4.88;;;4.10;;
13455;SDS011;6800;50.940;6.940;2022-07-24T16:25:52;4.40;;;4.05;;
13455;SDS011;6800;50.940;6.940;2022-07-24T16:29:52;4.72;;;4.32;;
13455;SDS011;6800;50.940;6.940;2022-07-24T16:33:53;4.97;;;4.50;;
13455;SDS011;6800;50.940;6.940;2022-07-24T16:37:53;6.13;;;4.03;;
13455;SDS011;6800;50.940;6.940;2022-07-24T16:41:53;4.07;;;3.75;;
13455;SDS011;6800;50.940;6.940;2022-07-24T16:45:54;4.88;;;4.20;;
13455;SDS011;6800;50.940;6.940;2022-07-24T16:49:54;4.28;;;3.90;;
13455;SDS011;6800;50.940;6.940;2022-07-24T16:53:55;4.45;;;4.15;;
13455;SDS011;6800;50.940;6.940;2022-07-24T16:57:55;4.90;;;4.20;;
13455;SDS011;6800;50.940;6.940;2022-07-24T17:01:56;4.15;;;3.80;;
13455;SDS011;6800;50.940;6.940;2022-07-24T17:05:56;4.32;;;3.92;;
13455;SDS011;6800;50.940;6.940;2022-07-24T17:09:56;4.80;;;4.07;;
13455;SDS011;6800;50.940;6.940;2022-07-24T17:13:57;3.83;;;3.53;;
13455;SDS011;6800;50.940;6.940;2022-07-24T17:17:57;4.00;;;3.70;;
13455;SDS011;6800;50.940;6.940;2022-07-24T17:21:58;4.10;;;3.78;;
13455;SDS011;6800;50.940;6.940;2022-07-24T17:26:01;4.43;;;4.03;;
13455;SDS011;6800;50.940;6.940;2022-07-24T17:30:03;4.30;;;3.90;;
13455;SDS011;6800;50.940;6.940;2022-07-24T17:34:04;3.97;;;3.63;;
13455;SDS011;6800;50.940;6.940;2022-07-24T17:38:05;5.33;;;3.90;;
13455;SDS011;6800;50.940;6.940;2022-07-24T17:42:05;5.05;;;3.70;;
13455;SDS011;6800;50.940;6.940;2022-07-24T17:50:25;3.90;;;3.55;;
13455;SDS011;6800;50.940;6.940;2022-07-24T17:54:25;5.07;;;3.88;;
13455;SDS011;6800;50.940;6.940;2022-07-24T17:58:25;3.47;;;3.28;;
13455;SDS011;6800;50.940;6.940;2022-07-24T18:02:26;4.78;;;4.00;;
13455;SDS011;6800;50.940;6.940;2022-07-24T18:06:26;4.05;;;3.75;;
13455;SDS011;6800;50.940;6.940;2022-07-24T18:10:26;5.22;;;3.72;;
13455;SDS011;6800;50.940;6.940;2022-07-24T18:14:27;3.72;;;3.50;;
13455;SDS011;6800;50.940;6.940;2022-07-24T18:18:27;4.55;;;3.70;;
13455;SDS011;6800;50.940;6.940;2022-07-24T18:22:28;4.35;;;4.03;;
13455;SDS011;6800;50.940;6.940;2022-07-24T18:26:30;5.13;;;4.72;;
13455;SDS011;6800;50.940;6.940;2022-07-24T18:30:30;4.47;;;4.07;;
13455;SDS011;6800;50.940;6.940;2022-07-24T18:34:30;4.95;;;4.55;;
13455;SDS011;6800;50.940;6.940;2022-07-24T18:38:31;5.00;;;4.60;;
13455;SDS011;6800;50.940;6.940;2022-07-24T18:42:32;5.32;;;4.75;;
13455;SDS011;6800;50.940;6.940;2022-07-24T18:46:33;7.37;;;5.33;;
13455;SDS011;6800;50.940;6.940;2022-07-24T18:50:33;5.07;;;4.60;;
13455;SDS011;6800;50.940;6.940;2022-07-24T18:54:34;5.65;;;5.10;;
13455;SDS011;6800;50.940;6.940;2022-07-24T18:58:34;5.22;;;4.55;;
13455;SDS011;6800;50.940;6.940;2022-07-24T19:02:34;6.00;;;5.47;;
13455;SDS011;6800;50.940;6.940;2022-07-24T19:06:35;5.80;;;5.30;;
13455;SDS011;6800;50.940;6.940;2022-07-24T19:10:35;4.93;;;4.53;;
13455;SDS011;6800;50.940;6.940;2022-07-24T19:14:36;5.90;;;5.40;;
13455;SDS011;6800;50.940;6.940;2022-07-24T19:18:37;4.85;;;4.53;;
13455;SDS011;6800;50.940;6.940;2022-07-24T19:22:37;6.63;;;5.82;;
13455;SDS011;6800;50.940;6.940;2022-07-24T19:26:37;6.20;;;5.57;;
13455;SDS011;6800;50.940;6.940;2022-07-24T19:30:37;6.20;;;5.70;;
13455;SDS011;6800;50.940;6.940;2022-07-24T19:34:38;6.05;;;5.55;;
13455;SDS011;6800;50.940;6.940;2022-07-24T19:38:39;6.47;;;5.93;;
13455;SDS011;6800;50.940;6.940;2022-07-24T19:42:41;5.97;;;5.47;;
13455;SDS011;6800;50.940;6.940;2022-07-24T19:46:41;6.40;;;5.80;;
13455;SDS011;6800;50.940;6.940;2022-07-24T19:50:41;7.20;;;6.60;;
13455;SDS011;6800;50.940;6.940;2022-07-24T19:54:42;7.88;;;6.50;;
13455;SDS011;6800;50.940;6.940;2022-07-24T19:58:44;6.85;;;6.32;;
13455;SDS011;6800;50.940;6.940;2022-07-24T20:02:44;7.70;;;6.47;;
13455;SDS011;6800;50.940;6.940;2022-07-24T20:06:46;6.68;;;6.05;;
13455;SDS011;6800;50.940;6.940;2022-07-24T20:10:46;7.10;;;6.38;;
13455;SDS011;6800;50.940;6.940;2022-07-24T20:14:47;7.85;;;6.22;;
13455;SDS011;6800;50.940;6.940;2022-07-24T20:18:47;6.40;;;5.90;;
13455;SDS011;6800;50.940;6.940;2022-07-24T20:22:47;6.72;;;5.55;;
13455;SDS011;6800;50.940;6.940;2022-07-24T20:26:48;6.78;;;6.18;;
13455;SDS011;6800;50.940;6.940;2022-07-24T20:30:48;6.20;;;5.70;;
13455;SDS011;6800;50.940;6.940;2022-07-24T20:34:48;5.53;;;5.13;;
13455;SDS011;6800;50.940;6.940;2022-07-24T20:38:49;7.55;;;6.95;;
13455;SDS011;6800;50.940;6.940;2022-07-24T20:42:49;7.32;;;6.35;;
13455;SDS011;6800;50.940;6.940;2022-07-24T20:46:49;8.87;;;7.20;;
13455;SDS011;6800;50.940;6.940;2022-07-24T20:50:50;8.32;;;7.05;;
13455;SDS011;6800;50.940;6.940;2022-07-24T20:54:50;6.50;;;5.93;;
13455;SDS011;6800;50.940;6.940;2022-07-24T20:58:50;6.60;;;5.90;;
13455;SDS011;6800;50.940;6.940;2022-07-24T21:02:51;6.30;;;5.70;;
13455;SDS011;6800;50.940;6.940;2022-07-24T21:06:51;6.30;;;5.50;;
13455;SDS011;6800;50.940;6.940;2022-07-24T21:10:51;6.07;;;5.57;;
13455;SDS011;6800;50.940;6.940;2022-07-24T21:14:52;5.75;;;5.22;;
13455;SDS011;6800;50.940;6.940;2022-07-24T21:18:52;5.90;;;5.40;;
13455;SDS011;6800;50.940;6.940;2022-07-24T21:22:53;5.90;;;5.40;;
13455;SDS011;6800;50.940;6.940;2022-07-24T21:26:54;5.60;;;5.10;;
13455;SDS011;6800;50.940;6.940;2022-07-24T21:30:55;6.38;;;5.78;;
13455;SDS011;6800;50.940;6.940;2022-07-24T21:34:56;6.00;;;5.50;;
13455;SDS011;6800;50.940;6.940;2022-07-24T21:38:56;6.00;;;5.40;;
13455;SDS011;6800;50.940;6.940;2022-07-24T21:42:56;5.93;;;5.10;;
13455;SDS011;6800;50.940;6.940;2022-07-24T21:46:57;5.97;;;5.43;;
13455;SDS011;6800;50.940;6.940;2022-07-24T21:50:57;6.35;;;5.75;;
13455;SDS011;6800;50.940;6.940;2022-07-24T21:54:59;7.15;;;5.80;;
13455;SDS011;6800;50.940;6.940;2022-07-24T21:58:59;7.28;;;5.75;;
13455;SDS011;6800;50.940;6.940;2022-07-24T22:02:59;6.18;;;5.68;;
13455;SDS011;6800;50.940;6.940;2022-07-24T22:07:00;5.80;;;5.30;;
13455;SDS011;6800;50.940;6.940;2022-07-24T22:11:02;8.57;;;5.65;;
13455;SDS011;6800;50.940;6.940;2022-07-24T22:15:03;6.20;;;5.72;;
13455;SDS011;6800;50.940;6.940;2022-07-24T22:19:03;7.35;;;5.50;;
13455;SDS011;6800;50.940;6.940;2022-07-24T22:23:04;6.15;;;5.65;;
13455;SDS011;6800;50.940;6.940;2022-07-24T22:27:04;6.32;;;5.72;;
13455;SDS011;6800;50.940;6.940;2022-07-24T22:31:04;5.93;;;5.43;;
13455;SDS011;6800;50.940;6.940;2022-07-24T22:35:05;5.78;;;5.18;;
13455;SDS011;6800;50.940;6.940;2022-07-24T22:39:06;5.82;;;5.32;;
13455;SDS011;6800;50.940;6.940;2022-07-24T22:43:08;6.57;;;5.60;;
13455;SDS011;6800;50.940;6.940;2022-07-24T22:47:09;5.93;;;5.35;;
13455;SDS011;6800;50.940;6.940;2022-07-24T22:51:10;6.63;;;5.95;;
13455;SDS011;6800;50.940;6.940;2022-07-24T22:55:11;6.63;;;5.95;;
13455;SDS011;6800;50.940;6.940;2022-07-24T22:59:12;6.93;;;5.57;;
13455;SDS011;6800;50.940;6.940;2022-07-24T23:03:13;6.15;;;5.60;;
13455;SDS011;6800;50.940;6.940;2022-07-24T23:07:13;6.47;;;5.85;;
13455;SDS011;6800;50.940;6.940;2022-07-24T23:11:14;6.53;;;5.80;;
13455;SDS011;6800;50.940;6.940;2022-07-24T23:15:14;6.38;;;5.43;;
13455;SDS011;6800;50.940;6.940;2022-07-24T23:19:15;7.60;;;6.03;;
13455;SDS011;6800;50.940;6.940;2022-07-24T23:23:16;5.70;;;5.20;;
13455;SDS011;6800;50.940;6.940;2022-07-24T23:27:16;5.97;;;5.45;;
13455;SDS011;6800;50.940;6.940;2022-07-24T23:31:16;5.90;;;5.25;;
13455;SDS011;6800;50.940;6.940;2022-07-24T23:35:17;5.57;;;5.07;;
13455;SDS011;6800;50.940;6.940;2022-07-24T23:39:17;5.57;;;5.07;;
13455;SDS011;6800;50.940;6.940;2022-07-24T23:43:17;6.40;;;5.90;;
13455;SDS011;6800;50.940;6.940;2022-07-24T23:47:18;6.13;;;5.63;;
13455;SDS011;6800;50.940;6.940;2022-07-24T23:51:18;6.18;;;5.68;;
13455;SDS011;6800;50.940;6.940;2022-07-24T23:55:19;8.13;;;6.10;;
13455;SDS011;6800;50.940;6.940;2022-07-24T23:59:19;6.50;;;5.90;;
